• Join FlightAware (Why Join?)
  • Login
  • US Flag 
07:58PM EDT


 

Airport Tracker/Info


-or-


 

Live Flight TrackerFlight Track Log ✈ SKW6301 ✈ 08-Sep-2013 ✈ KDEN - KICT

Flight Track Log - Related Links

Times and Time Zones

All times are in EDT time to prevent confusion due to time zone crossing. See the SKW6301 flight status page for this flight to view local times or setup timezone preferences in your user account.

Time Position Orientation Groundspeed Altitude Reporting Facility
EDT Latitude Longitude Course Direction KTS MPH feet Rate Location/Type
12:07AM 39.8833 -104.6000 111° Southeast 177 204 6,400  Level Denver TRACON
12:08AM 39.8667 -104.5333 108° East 218 251 8,100 1,680 Climbing Denver TRACON
12:09AM 39.7437 -104.2331 113° Southeast  Level Estimated
12:09AM 39.8333 -104.4667 123° Southeast 261 300 9,300  Level Denver TRACON
12:10AM 39.7040 -104.0868 113° Southeast  Level Estimated
12:10AM 39.8019 -104.3778 115° Southeast 295 339 11,000  Level Denver Center
12:11AM 39.6641 -103.9406 108° East  Level Estimated
12:11AM 39.7619 -104.2675 115° Southeast 335 386 12,700  Level Denver Center
12:12AM 39.6241 -103.7946 111° Southeast  Level Estimated
12:12AM 39.7256 -104.1456 111° Southeast 362 417 14,500  Level Denver Center
12:13AM 39.6889 -104.0081 109° East 374 430 16,800 1,920 Climbing Denver Center
12:14AM 39.6511 -103.8767 110° East 388 447 18,500 1,800 Climbing Denver Center
12:15AM 39.6167 -103.7464 109° East 389 448 20,500 1,560 Climbing Denver Center
12:16AM 39.5828 -103.6261 110° East 388 447 21,700 1,200 Climbing Denver Center
12:17AM 39.5361 -103.4581 110° East 412 474 23,300 1,320 Climbing Denver Center
12:18AM 39.4872 -103.2828 110° East 431 496 24,700 1,200 Climbing Denver Center
12:19AM 39.4444 -103.1333 110° East 441 507 25,800 1,140 Climbing Denver Center
12:20AM 39.4008 -102.9814 110° East 448 516 27,100 1,200 Climbing Denver Center
12:21AM 39.3581 -102.8297 110° East 451 519 28,300 1,080 Climbing Denver Center
12:22AM 39.3172 -102.6878 110° East 459 528 29,300 1,260 Climbing Denver Center
12:23AM 39.2675 -102.5156 110° East 460 529 30,900 1,380 Climbing Denver Center
12:24AM 39.2244 -102.3667 110° East 462 532 32,200 1,320 Climbing Denver Center
12:25AM 39.1817 -102.2222 111° Southeast 455 524 33,600 1,440 Climbing Denver Center
12:26AM 39.1322 -102.0539 111° Southeast 451 519 35,200 1,500 Climbing Denver Center
12:27AM 39.0911 -101.9128 111° Southeast 443 510 36,700 1,260 Climbing Denver Center
12:28AM 39.0425 -101.7528 111° Southeast 433 498 37,800 840 Climbing Denver Center
12:29AM 39.0011 -101.6158 111° Southeast 430 495 38,500 480 Climbing Denver Center
12:30AM 38.9519 -101.4536 111° Southeast 435 501 39,000 180 Climbing Denver Center
12:31AM 38.9025 -101.2875 111° Southeast 443 510 39,000  Level Denver Center
12:32AM 38.8597 -101.1444 111° Southeast 447 514 39,000  Level Denver Center
12:33AM 38.8156 -101.0000 111° Southeast 451 519 39,000  Level Denver Center
12:34AM 38.7636 -100.8325 112° Southeast 453 521 39,000  Level Denver Center
12:35AM 38.7203 -100.6892 111° Southeast 450 518 39,000  Level Denver Center
12:36AM 38.6753 -100.5453 112° Southeast 454 522 39,000  Level Denver Center
12:37AM 38.6225 -100.3778 112° Southeast 455 524 39,000  Level Denver Center
12:38AM 38.5781 -100.2344 112° Southeast 453 521 39,000  Level Denver Center
12:39AM 38.5325 -100.0919 112° Southeast 453 521 39,000  Level Denver Center
12:40AM 38.4797 -99.9242 112° Southeast 455 524 39,000  Level Denver Center
12:41AM 38.4342 -99.7811 112° Southeast 454 522 39,000  Level Denver Center
12:43AM 38.3714 -99.5911 113° Southeast 454 522 39,000  Level Kansas City Center
12:44AM 38.3253 -99.4503 113° Southeast 456 525 39,000 -1,500 Level Kansas City Center
12:45AM 38.2761 -99.3006 113° Southeast 458 527 36,100 -3,060 Descending Kansas City Center
12:46AM 38.2278 -99.1508 112° Southeast 459 528 32,900 -3,180 Descending Kansas City Center
12:47AM 38.1781 -99.0022 113° Southeast 458 527 29,700 -3,240 Descending Kansas City Center
12:48AM 38.1317 -98.8578 112° Southeast 448 516 26,400 -3,120 Descending Kansas City Center
12:49AM 38.0811 -98.7075 113° Southeast 457 526 23,500 -3,000 Descending Kansas City Center
12:50AM 38.0319 -98.5581 113° Southeast 460 529 20,400 -3,180 Descending Kansas City Center
12:50AM 38.0300 -98.5486 105° East 459 528 20,300 -5,160 Descending Kansas City Center
12:50AM 38.0219 -98.5286 117° Southeast 456 525 19,800 -2,880 Descending Kansas City Center
12:51AM 37.9875 -98.4200 112° Southeast 434 499 17,500 -3,000 Descending Kansas City Center
12:51AM 37.9783 -98.3914 112° Southeast 410 472 16,800 -2,940 Descending Kansas City Center
12:52AM 37.9475 -98.2944 112° Southeast 393 452 14,600 -2,700 Descending Kansas City Center
12:52AM 37.9397 -98.2672 110° East 376 433 14,100 -2,220 Descending Kansas City Center
12:53AM 37.9189 -98.1667 105° East 379 436 12,400 -1,980 Descending Kansas City Center
12:53AM 37.9114 -98.1386 109° East 373 429 12,100 -1,200 Descending Kansas City Center
12:54AM 37.8914 -98.0464 105° East 367 422 11,200 -1,140 Descending Kansas City Center
12:54AM 37.8839 -98.0208 110° East 354 407 11,000 -1,020 Descending Kansas City Center
12:55AM 37.8664 -97.9397 105° East 337 388 10,200 -1,140 Descending Kansas City Center
12:55AM 37.8594 -97.9158 110° East 301 346 9,900 -1,320 Descending Kansas City Center
12:56AM 37.8439 -97.8464 106° East 301 346 8,900 -1,560 Descending Kansas City Center
12:56AM 37.8344 -97.8083 107° East 269 310 8,200 -1,500 Descending Kansas City Center
12:57AM 37.8222 -97.7542 106° East 281 323 7,400 -1,500 Descending Kansas City Center
12:57AM 37.8108 -97.7139 110° East 280 322 6,700 -1,500 Descending Kansas City Center
12:58AM 37.7997 -97.6578 104° East 284 327 5,900 -1,500 Descending Kansas City Center
12:58AM 37.7889 -97.6139 107° East 292 336 5,200 -1,500 Descending Kansas City Center
12:59AM 37.7733 -97.5442 106° East 284 327 4,400 -900 Descending Kansas City Center
12:59AM 37.7675 -97.5247 111° Southeast 267 307 4,300 -840 Descending Kansas City Center
01:00AM 37.7542 -97.4656 106° East 254 292 3,600 -1,020 Descending Kansas City Center
01:00AM 37.7503 -97.4558 117° Southeast 206 237 3,400 -1,140 Descending Kansas City Center
01:01AM 37.7258 -97.4192 130° Southeast 201 231 2,500 -1,020 Descending Kansas City Center
01:01AM 37.7194 -97.4183 174° South 124 143 2,400 -540 Descending Kansas City Center
01:02AM 37.6961 -97.4175 178° South 139 160 2,000 -540 Descending Kansas City Center
01:02AM 37.6903 -97.4200 199° South 90 104 1,900 -540 Descending Kansas City Center
01:03AM 37.6672 -97.4311 201° Southwest 118 136 1,500 -540 Descending Kansas City Center